Time;durP1;ratioP1;P1;durP2;ratioP2;P2;SDS_P1;SDS_P2;PMS_P1;PMS_P2;Temp;Humidity;BMP_temperature;BMP_pressure;BME280_temperature;BME280_humidity;BME280_pressure;Samples;Min_cycle;Max_cycle;Signal;HPM_P1;HPM_P2
2022/06/13 00:01:29;;;;;;;2.60;1.05;;;12.00;98.30;;;;;;5054638;28;20075;-70
2022/06/13 00:03:58;;;;;;;2.80;0.80;;;12.10;98.20;;;;;;5052725;28;20024;-69
2022/06/13 00:06:26;;;;;;;2.03;0.50;;;12.20;97.90;;;;;;5054287;28;20387;-64
2022/06/13 00:08:54;;;;;;;1.15;0.88;;;12.20;97.80;;;;;;5054550;28;20584;-71
2022/06/13 00:11:24;;;;;;;3.90;0.93;;;12.30;97.50;;;;;;5053734;28;20021;-68
2022/06/13 00:13:54;;;;;;;2.13;0.90;;;12.40;97.10;;;;;;5054371;28;20021;-70
2022/06/13 00:16:22;;;;;;;2.33;0.85;;;12.40;97.20;;;;;;5054025;28;20021;-69
2022/06/13 00:18:50;;;;;;;1.83;0.63;;;12.50;97.10;;;;;;5054321;28;20095;-67
2022/06/13 00:21:22;;;;;;;2.15;0.75;;;12.60;97.00;;;;;;5070361;28;20539;-70
2022/06/13 00:23:50;;;;;;;1.90;0.73;;;12.60;96.80;;;;;;5014865;28;20036;-66
2022/06/13 00:26:21;;;;;;;3.33;0.85;;;12.60;96.80;;;;;;5013636;28;20084;-67
2022/06/13 00:28:49;;;;;;;1.17;0.80;;;12.70;97.00;;;;;;5014776;28;20025;-71
2022/06/13 00:31:17;;;;;;;1.58;0.77;;;12.80;96.40;;;;;;5014521;28;20101;-66
2022/06/13 00:33:44;;;;;;;1.05;0.70;;;12.80;96.00;;;;;;5015235;28;20026;-67
2022/06/13 00:36:12;;;;;;;1.30;0.80;;;13.00;95.90;;;;;;5053355;28;20025;-66
2022/06/13 00:38:39;;;;;;;1.70;0.73;;;13.10;95.70;;;;;;5053469;28;20078;-67
2022/06/13 00:41:16;;;;;;;0.90;0.70;;;13.10;95.40;;;;;;5053326;28;20032;-64
2022/06/13 00:43:46;;;;;;;2.08;1.58;;;13.20;95.50;;;;;;5053906;28;20420;-71
2022/06/13 00:46:39;;;;;;;2.13;0.88;;;13.20;95.50;;;;;;5053513;28;20060;-69
2022/06/13 00:49:13;;;;;;;2.42;1.50;;;13.20;95.40;;;;;;5053934;28;20033;-72
2022/06/13 00:51:49;;;;;;;2.63;0.73;;;13.30;95.50;;;;;;5053871;28;20021;-65
2022/06/13 00:54:19;;;;;;;2.92;0.88;;;13.40;95.40;;;;;;5053611;28;20151;-69
2022/06/13 00:56:48;;;;;;;1.30;0.90;;;13.40;95.40;;;;;;5053796;28;20018;-71
2022/06/13 00:59:19;;;;;;;1.50;0.70;;;13.50;95.30;;;;;;5053100;28;20033;-66
2022/06/13 01:01:47;;;;;;;3.17;0.90;;;13.60;95.10;;;;;;5053200;28;20135;-70
2022/06/13 01:04:14;;;;;;;2.25;1.08;;;13.60;95.00;;;;;;5053395;28;20381;-72
2022/06/13 01:06:48;;;;;;;3.78;0.90;;;13.70;94.90;;;;;;5052222;28;20496;-69
2022/06/13 01:09:18;;;;;;;3.97;1.05;;;13.80;94.90;;;;;;5053395;28;20028;-69
2022/06/13 01:11:52;;;;;;;3.92;0.90;;;13.90;94.70;;;;;;5052707;28;20096;-72
2022/06/13 01:14:29;;;;;;;7.05;0.98;;;13.90;94.70;;;;;;5051999;28;20151;-73
2022/06/13 01:17:08;;;;;;;4.80;1.60;;;14.00;94.20;;;;;;5052830;28;20029;-69
2022/06/13 01:19:38;;;;;;;1.45;0.90;;;14.10;94.20;;;;;;5052614;28;20078;-72
2022/06/13 01:22:21;;;;;;;4.32;0.90;;;14.10;94.20;;;;;;5050954;28;20044;-71
2022/06/13 01:25:03;;;;;;;;;;;14.20;94.10;;;;;;5052937;28;20021;-66
2022/06/13 01:27:48;;;;;;;1.90;1.40;;;14.20;93.90;;;;;;5052863;28;19956;-66
2022/06/13 01:30:48;;;;;;;2.70;1.90;;;14.30;93.30;;;;;;5052786;28;20077;-64
2022/06/13 01:33:49;;;;;;;2.60;1.10;;;14.40;93.20;;;;;;5050911;28;20386;-68
2022/06/13 01:36:30;;;;;;;3.28;1.20;;;14.50;93.30;;;;;;5011127;28;20116;-71
2022/06/13 01:39:18;;;;;;;1.40;0.80;;;14.70;93.60;;;;;;5042258;28;20037;-70
2022/06/13 01:42:07;;;;;;;2.53;0.98;;;14.80;93.30;;;;;;5043108;28;20045;-66
2022/06/13 01:45:04;;;;;;;3.72;0.80;;;15.00;93.00;;;;;;5020875;28;20021;-70
2022/06/13 01:47:55;;;;;;;2.63;0.98;;;15.20;92.90;;;;;;5052076;28;20032;-74
2022/06/13 01:50:41;;;;;;;2.17;0.98;;;15.40;92.60;;;;;;5052930;28;20086;-68
2022/06/13 01:53:14;;;;;;;3.17;1.10;;;15.60;93.00;;;;;;5051729;28;20021;-69
2022/06/13 01:55:55;;;;;;;4.68;1.13;;;15.80;91.40;;;;;;5052423;28;20088;-69
2022/06/13 01:58:22;;;;;;;4.68;0.80;;;15.90;91.40;;;;;;5052826;28;20017;-68
2022/06/13 02:00:58;;;;;;;2.33;1.10;;;16.20;91.30;;;;;;5052787;28;20274;-73
2022/06/13 02:03:59;;;;;;;2.30;0.90;;;16.40;90.80;;;;;;5052656;28;20424;-64
2022/06/13 02:06:37;;;;;;;2.25;0.90;;;16.50;89.70;;;;;;5052095;28;20053;-73
2022/06/13 02:09:25;;;;;;;4.35;0.88;;;16.50;90.00;;;;;;5052318;28;20025;-75
2022/06/13 02:11:55;;;;;;;2.63;1.02;;;16.70;87.90;;;;;;5052284;28;20032;-68
2022/06/13 02:14:45;;;;;;;5.07;1.52;;;16.60;86.90;;;;;;5051029;28;20029;-70
2022/06/13 02:17:24;;;;;;;6.72;1.35;;;16.80;86.80;;;;;;5032438;28;20041;-68
2022/06/13 02:20:02;;;;;;;2.90;1.15;;;16.80;84.90;;;;;;5050903;28;20045;-69
2022/06/13 02:22:46;;;;;;;4.97;1.20;;;16.80;84.80;;;;;;5052320;28;20584;-72
2022/06/13 02:25:18;;;;;;;4.00;1.38;;;16.80;84.20;;;;;;5052160;28;20106;-69
2022/06/13 02:28:13;;;;;;;5.20;1.02;;;16.90;83.30;;;;;;5051824;28;20021;-67
2022/06/13 02:30:53;;;;;;;6.68;1.48;;;16.90;82.20;;;;;;5036439;28;20037;-70
2022/06/13 02:33:32;;;;;;;6.25;1.10;;;17.10;82.30;;;;;;5051265;28;20024;-74
2022/06/13 02:36:07;;;;;;;1.48;0.90;;;17.40;80.90;;;;;;5051581;28;20362;-70
2022/06/13 02:38:46;;;;;;;4.43;1.13;;;17.70;79.60;;;;;;5067079;28;20116;-72
2022/06/13 02:41:20;;;;;;;3.50;1.30;;;18.00;79.60;;;;;;5052016;28;20040;-70
2022/06/13 02:44:04;;;;;;;3.92;1.65;;;18.20;78.00;;;;;;5052065;28;20051;-68
2022/06/13 02:46:39;;;;;;;2.35;1.00;;;18.40;77.10;;;;;;5067211;28;20159;-69
2022/06/13 02:49:31;;;;;;;3.72;1.25;;;18.80;76.40;;;;;;5051166;28;20029;-69
2022/06/13 02:52:22;;;;;;;2.95;1.00;;;19.30;75.30;;;;;;5051717;28;20024;-67
2022/06/13 02:55:00;;;;;;;2.45;1.05;;;19.40;73.10;;;;;;5051392;28;20139;-65
2022/06/13 02:57:34;;;;;;;3.88;1.50;;;18.90;73.70;;;;;;5052058;28;20108;-71
2022/06/13 03:00:10;;;;;;;3.22;1.17;;;18.40;75.40;;;;;;5051477;28;20025;-63
2022/06/13 03:02:59;;;;;;;5.07;1.67;;;18.10;76.00;;;;;;5051446;28;20027;-72
2022/06/13 03:05:42;;;;;;;2.78;1.10;;;18.60;76.20;;;;;;5051854;28;20037;-70
2022/06/13 03:08:15;;;;;;;2.88;0.98;;;19.10;75.30;;;;;;5051477;28;20029;-69
2022/06/13 03:11:17;;;;;;;4.80;1.20;;;19.50;72.70;;;;;;5051904;28;20040;-68
2022/06/13 03:14:13;;;;;;;4.40;1.60;;;19.60;73.40;;;;;;5035434;28;20026;-66
2022/06/13 03:16:58;;;;;;;5.05;1.50;;;19.40;74.90;;;;;;5011975;28;20111;-70
2022/06/13 03:19:46;;;;;;;3.75;1.63;;;19.60;73.80;;;;;;5011897;28;20030;-72
2022/06/13 03:22:34;;;;;;;4.93;2.05;;;19.70;73.70;;;;;;5038882;28;20127;-71
2022/06/13 03:25:07;;;;;;;5.22;1.27;;;20.20;73.60;;;;;;5051916;28;20389;-64
2022/06/13 03:27:58;;;;;;;5.95;1.23;;;20.30;73.50;;;;;;5029156;28;20022;-69
2022/06/13 03:30:30;;;;;;;8.75;1.70;;;20.70;73.50;;;;;;5046319;28;20049;-70
2022/06/13 03:35:52;;;;;;;4.88;2.20;;;21.30;71.40;;;;;;5055373;28;20064;-67
2022/06/13 03:38:25;;;;;;;7.18;1.48;;;21.20;70.40;;;;;;5055039;28;20045;-67
2022/06/13 03:40:57;;;;;;;4.85;2.20;;;21.40;70.70;;;;;;5052655;28;20029;-71
2022/06/13 03:43:24;;;;;;;5.22;1.55;;;21.20;70.10;;;;;;5042278;28;20025;-71
2022/06/13 03:46:03;;;;;;;4.78;1.65;;;20.60;71.00;;;;;;5044372;28;20052;-67
2022/06/13 03:49:08;;;;;;;5.75;1.42;;;20.00;72.80;;;;;;5035139;28;20022;-69
2022/06/13 03:51:42;;;;;;;5.40;1.15;;;19.60;73.30;;;;;;5011984;28;20107;-67
2022/06/13 03:54:14;;;;;;;2.80;1.33;;;19.30;74.00;;;;;;5034760;28;20048;-70
2022/06/13 03:56:56;;;;;;;4.97;1.58;;;19.20;74.30;;;;;;5051060;28;20029;-74
2022/06/13 03:59:37;;;;;;;6.80;1.73;;;18.80;74.90;;;;;;5014667;28;20406;-69
2022/06/13 04:02:14;;;;;;;6.60;1.80;;;18.70;76.30;;;;;;5014722;28;20033;-70
2022/06/13 04:04:48;;;;;;;1.88;1.17;;;19.20;75.60;;;;;;5015431;28;20420;-65
2022/06/13 04:07:20;;;;;;;4.15;1.23;;;19.30;75.10;;;;;;5038776;28;20055;-68
2022/06/13 04:09:55;;;;;;;4.10;1.45;;;19.30;74.00;;;;;;5053567;28;20116;-70
2022/06/13 04:12:51;;;;;;;4.63;1.00;;;19.10;74.90;;;;;;5052668;28;20033;-65
2022/06/13 04:15:35;;;;;;;4.00;1.38;;;18.80;75.60;;;;;;5031733;28;20041;-65
2022/06/13 04:18:14;;;;;;;3.92;1.33;;;18.50;76.70;;;;;;5034239;28;20022;-65
2022/06/13 04:20:54;;;;;;;6.25;2.10;;;18.20;76.60;;;;;;5047547;28;20037;-66
2022/06/13 04:23:47;;;;;;;4.40;1.50;;;17.90;77.80;;;;;;5054339;28;20021;-71
2022/06/13 04:26:37;;;;;;;4.55;1.33;;;17.70;78.90;;;;;;5039689;28;20049;-73
2022/06/13 04:29:16;;;;;;;4.35;1.83;;;17.50;79.50;;;;;;5052147;28;20033;-65
2022/06/13 04:31:44;;;;;;;2.90;1.27;;;17.30;80.60;;;;;;5053553;28;20021;-68
2022/06/13 04:34:20;;;;;;;10.07;2.20;;;17.10;80.70;;;;;;5053820;28;20048;-69
2022/06/13 04:36:49;;;;;;;5.18;2.10;;;16.90;81.10;;;;;;5034032;28;20033;-66
2022/06/13 04:39:21;;;;;;;3.65;1.33;;;16.90;80.90;;;;;;5033637;28;20033;-63
2022/06/13 04:41:49;;;;;;;3.92;1.30;;;16.80;81.20;;;;;;5034054;28;20466;-63
2022/06/13 04:44:21;;;;;;;5.32;1.58;;;16.70;82.00;;;;;;5042181;28;20065;-70
2022/06/13 04:46:50;;;;;;;4.77;1.70;;;16.70;82.80;;;;;;5030446;28;20028;-71
2022/06/13 04:49:43;;;;;;;3.53;1.20;;;16.60;82.70;;;;;;5061056;28;20033;-70
2022/06/13 04:52:13;;;;;;;;;;;16.60;82.70;;;;;;5051274;28;20044;-69
2022/06/13 04:55:15;;;;;;;5.22;1.48;;;16.70;83.10;;;;;;5067993;28;19961;-69
2022/06/13 04:57:42;;;;;;;4.93;2.05;;;16.70;82.80;;;;;;5040377;28;20033;-71
2022/06/13 05:00:12;;;;;;;7.07;1.38;;;16.70;82.60;;;;;;5053273;28;20029;-69
2022/06/13 05:02:47;;;;;;;3.28;1.85;;;16.70;82.60;;;;;;5053446;28;20017;-70
2022/06/13 05:05:43;;;;;;;4.75;1.27;;;16.70;82.20;;;;;;5063972;28;20032;-69
2022/06/13 05:08:27;;;;;;;5.95;1.50;;;16.80;81.30;;;;;;5031265;28;20393;-71
2022/06/13 05:11:01;;;;;;;6.00;1.00;;;16.70;81.80;;;;;;5067915;28;20021;-71
2022/06/13 05:13:29;;;;;;;5.78;1.70;;;16.80;81.90;;;;;;5068424;28;20029;-78
2022/06/13 05:16:41;;;;;;;5.18;1.35;;;16.70;81.10;;;;;;5040636;28;20032;-71
2022/06/13 05:19:32;;;;;;;3.40;1.10;;;16.70;82.00;;;;;;4996565;28;20046;-72
2022/06/13 05:22:28;;;;;;;4.03;1.48;;;16.70;81.90;;;;;;5067224;28;20027;-71
2022/06/13 05:25:12;;;;;;;4.75;1.30;;;16.80;81.60;;;;;;5049867;28;20048;-70
2022/06/13 05:27:39;;;;;;;4.05;1.08;;;16.80;81.40;;;;;;5045746;28;20132;-70
2022/06/13 05:30:10;;;;;;;4.20;1.13;;;16.80;81.40;;;;;;5052854;28;20028;-69
2022/06/13 05:32:37;;;;;;;7.38;1.38;;;16.90;81.30;;;;;;5051531;28;20374;-76
2022/06/13 05:35:05;;;;;;;7.18;2.38;;;17.10;80.80;;;;;;5047126;28;20032;-71
2022/06/13 05:37:33;;;;;;;7.40;1.50;;;17.50;81.10;;;;;;5044976;28;20028;-72
2022/06/13 05:40:00;;;;;;;6.82;1.27;;;17.60;79.40;;;;;;5067915;28;20048;-69
2022/06/13 05:42:28;;;;;;;4.32;2.03;;;17.70;78.90;;;;;;5068165;28;20067;-70
2022/06/13 05:44:55;;;;;;;4.63;2.13;;;17.70;79.10;;;;;;5047983;28;20037;-72
2022/06/13 05:47:23;;;;;;;5.85;2.33;;;17.60;79.30;;;;;;5047217;28;20425;-70
2022/06/13 05:49:50;;;;;;;4.90;1.70;;;17.60;80.50;;;;;;5043486;28;20029;-73
2022/06/13 05:52:17;;;;;;;2.28;1.20;;;17.60;79.80;;;;;;5051531;28;20104;-71
2022/06/13 05:54:45;;;;;;;5.15;1.58;;;17.50;79.80;;;;;;5051098;28;20367;-69
2022/06/13 05:57:13;;;;;;;3.42;1.40;;;17.60;79.70;;;;;;5051311;28;20057;-72
2022/06/13 05:59:40;;;;;;;4.25;1.00;;;17.70;79.30;;;;;;5052001;28;20025;-68
2022/06/13 06:02:09;;;;;;;4.47;1.30;;;17.80;79.20;;;;;;5051915;28;20205;-70
2022/06/13 06:04:37;;;;;;;7.22;1.45;;;17.90;78.70;;;;;;5051520;28;20028;-79
2022/06/13 06:07:04;;;;;;;5.03;1.35;;;18.00;78.40;;;;;;5032113;28;20017;-70
2022/06/13 06:09:32;;;;;;;2.47;1.35;;;18.10;78.60;;;;;;5036579;28;20096;-74
2022/06/13 06:11:59;;;;;;;3.35;0.93;;;18.00;77.70;;;;;;5051952;28;20477;-70
2022/06/13 06:14:27;;;;;;;3.22;1.42;;;17.80;79.50;;;;;;5051489;28;20496;-70
2022/06/13 06:16:54;;;;;;;3.55;1.60;;;17.60;79.60;;;;;;5032405;28;20030;-68
2022/06/13 06:19:22;;;;;;;5.50;1.77;;;17.30;80.60;;;;;;5032153;28;20030;-70
2022/06/13 06:21:49;;;;;;;3.38;1.60;;;17.10;81.80;;;;;;5035024;28;20025;-74
2022/06/13 06:24:17;;;;;;;6.53;1.75;;;16.90;82.50;;;;;;5067824;28;20032;-74
2022/06/13 06:26:45;;;;;;;6.78;1.90;;;16.70;83.70;;;;;;5049672;28;20091;-72
2022/06/13 06:29:12;;;;;;;4.38;1.90;;;16.50;85.20;;;;;;5051913;28;20603;-72
2022/06/13 06:31:39;;;;;;;7.50;2.65;;;16.30;85.20;;;;;;5052998;28;20040;-74
2022/06/13 06:34:07;;;;;;;4.88;2.38;;;16.10;85.70;;;;;;5052371;28;20024;-73
2022/06/13 06:36:35;;;;;;;6.72;2.25;;;15.80;86.80;;;;;;5048514;28;20110;-76
2022/06/13 06:39:02;;;;;;;8.70;2.42;;;15.70;87.90;;;;;;5041640;28;20051;-73
2022/06/13 06:41:29;;;;;;;8.68;3.50;;;15.50;88.10;;;;;;5052366;28;20021;-70
2022/06/13 06:44:00;;;;;;;5.90;2.72;;;15.40;88.90;;;;;;5051175;28;20025;-72
2022/06/13 06:46:27;;;;;;;8.15;2.97;;;15.10;89.10;;;;;;5052246;28;20057;-73
2022/06/13 06:48:55;;;;;;;6.07;2.78;;;15.00;90.00;;;;;;5051295;28;20132;-69
2022/06/13 06:51:25;;;;;;;8.48;2.67;;;14.90;90.50;;;;;;5051070;28;20079;-71
2022/06/13 07:02:13;;;;;;;5.78;2.90;;;14.40;92.20;;;;;;5055587;28;20072;-76
2022/06/13 07:04:40;;;;;;;9.77;3.20;;;14.20;92.30;;;;;;5044055;28;20021;-70
2022/06/13 07:07:08;;;;;;;7.70;2.90;;;14.10;92.80;;;;;;5038094;28;20033;-73
2022/06/13 07:09:35;;;;;;;9.43;3.15;;;13.90;93.20;;;;;;5041115;28;20020;-74
2022/06/13 07:12:03;;;;;;;10.38;3.75;;;13.80;93.30;;;;;;5057482;28;20017;-72
2022/06/13 07:14:34;;;;;;;7.45;3.80;;;13.70;93.80;;;;;;5045387;28;20052;-71
2022/06/13 07:17:04;;;;;;;10.45;4.72;;;13.60;93.90;;;;;;5038058;28;20033;-71
2022/06/13 07:19:32;;;;;;;8.40;4.65;;;13.50;94.20;;;;;;5039661;28;20029;-68
2022/06/13 07:22:00;;;;;;;10.07;5.13;;;13.50;94.30;;;;;;5057479;28;20053;-70
2022/06/13 07:24:28;;;;;;;9.90;4.15;;;13.30;94.40;;;;;;5057804;28;20127;-68
2022/06/13 07:26:56;;;;;;;8.90;4.25;;;13.30;94.70;;;;;;5039828;28;20104;-67
2022/06/13 07:29:23;;;;;;;9.68;3.95;;;13.20;94.90;;;;;;5036963;28;20017;-68
2022/06/13 07:31:58;;;;;;;8.13;4.88;;;13.00;95.10;;;;;;5048224;28;20025;-68
2022/06/13 07:34:30;;;;;;;9.05;3.70;;;12.90;95.40;;;;;;5057537;28;20039;-69
2022/06/13 07:36:59;;;;;;;7.57;4.63;;;12.90;95.80;;;;;;5057588;28;20466;-68
2022/06/13 07:39:26;;;;;;;9.88;4.90;;;12.80;96.00;;;;;;5057287;28;20033;-70
2022/06/13 07:41:54;;;;;;;12.38;6.38;;;12.80;96.30;;;;;;5057441;28;20430;-70
2022/06/13 07:44:31;;;;;;;11.93;6.03;;;12.70;96.50;;;;;;5057163;28;20078;-67
2022/06/13 07:46:59;;;;;;;13.45;6.35;;;12.60;96.60;;;;;;5056645;28;20599;-68
2022/06/13 07:49:27;;;;;;;17.35;7.47;;;12.60;97.00;;;;;;5056514;28;20032;-67
2022/06/13 07:51:54;;;;;;;12.45;7.30;;;12.50;96.90;;;;;;5054390;28;20025;-67
2022/06/13 07:54:22;;;;;;;13.07;7.55;;;12.40;97.30;;;;;;5056629;28;20136;-67
2022/06/13 07:56:51;;;;;;;11.38;6.85;;;12.40;97.40;;;;;;5057250;28;20029;-68
2022/06/13 07:59:27;;;;;;;11.65;6.72;;;12.30;97.50;;;;;;5057434;28;20071;-69
2022/06/13 08:01:56;;;;;;;10.65;5.57;;;12.20;97.70;;;;;;5057477;28;20489;-68
2022/06/13 08:04:23;;;;;;;12.23;7.70;;;12.20;98.00;;;;;;5057523;28;20028;-70
2022/06/13 08:06:50;;;;;;;17.27;13.32;;;12.10;98.20;;;;;;5072294;28;20108;-70
2022/06/13 08:09:18;;;;;;;20.98;14.13;;;12.20;98.40;;;;;;5055994;28;20420;-67
2022/06/13 08:11:49;;;;;;;17.63;13.00;;;12.00;98.60;;;;;;5057476;28;20025;-68
2022/06/13 08:14:16;;;;;;;19.20;13.23;;;12.00;98.60;;;;;;5052609;28;20055;-68
2022/06/13 08:16:44;;;;;;;18.70;12.52;;;11.90;98.90;;;;;;5053409;28;20082;-70
2022/06/13 08:19:11;;;;;;;19.38;14.80;;;11.90;99.10;;;;;;5054261;28;20076;-67
2022/06/13 08:21:39;;;;;;;16.92;10.60;;;11.80;99.30;;;;;;5054727;28;20682;-68
2022/06/13 08:24:06;;;;;;;14.95;9.98;;;11.80;99.40;;;;;;5054446;28;20059;-69
2022/06/13 08:26:34;;;;;;;13.32;7.90;;;11.80;99.50;;;;;;5052261;28;20024;-69
2022/06/13 08:29:03;;;;;;;12.95;7.65;;;11.70;99.70;;;;;;5053872;28;20029;-68
2022/06/13 08:31:32;;;;;;;13.25;6.45;;;11.70;99.80;;;;;;5054007;28;20017;-66
2022/06/13 08:33:59;;;;;;;11.43;5.72;;;11.60;99.80;;;;;;5054348;28;20123;-68
2022/06/13 08:36:26;;;;;;;7.97;5.43;;;11.50;99.90;;;;;;5053309;28;20059;-68
2022/06/13 08:38:53;;;;;;;9.73;5.07;;;11.40;99.90;;;;;;5053800;28;20021;-68
2022/06/13 08:41:51;;;;;;;11.75;4.97;;;11.40;99.90;;;;;;5053585;28;20052;-67
2022/06/13 08:44:39;;;;;;;12.48;6.60;;;11.40;99.90;;;;;;5053636;28;20074;-66
2022/06/13 08:47:32;;;;;;;10.88;5.88;;;11.40;99.90;;;;;;5053568;28;20108;-66
2022/06/13 08:50:20;;;;;;;;;;;11.30;99.90;;;;;;5054388;28;20120;-73
2022/06/13 08:52:53;;;;;;;14.50;6.25;;;11.30;99.90;;;;;;5053718;28;20011;-71
2022/06/13 08:55:34;;;;;;;18.15;10.63;;;11.30;99.90;;;;;;5051893;28;20052;-66
2022/06/13 08:58:31;;;;;;;16.85;9.18;;;11.20;99.90;;;;;;5052954;28;20021;-67
2022/06/13 09:01:13;;;;;;;13.93;8.05;;;11.20;99.90;;;;;;5068722;28;20121;-70
2022/06/13 09:03:52;;;;;;;13.75;7.63;;;11.20;99.90;;;;;;5053379;28;20033;-68
2022/06/13 09:06:30;;;;;;;13.98;8.82;;;11.10;99.90;;;;;;5051680;28;20075;-70
2022/06/13 09:09:12;;;;;;;13.07;7.13;;;11.10;99.90;;;;;;5053080;28;20052;-71
2022/06/13 09:11:56;;;;;;;13.55;8.32;;;11.10;99.90;;;;;;5053691;28;20029;-67
2022/06/13 09:14:26;;;;;;;12.00;8.65;;;11.00;99.90;;;;;;5053330;28;20047;-70
2022/06/13 09:17:11;;;;;;;13.20;9.25;;;11.00;99.90;;;;;;5052613;28;20075;-70
2022/06/13 09:19:48;;;;;;;16.85;9.85;;;11.00;99.90;;;;;;5052848;28;20029;-70
2022/06/13 09:22:28;;;;;;;16.63;8.88;;;11.00;99.90;;;;;;5053245;28;20469;-70
2022/06/13 09:25:08;;;;;;;15.55;8.40;;;10.90;99.90;;;;;;5052121;28;20021;-67
2022/06/13 09:27:41;;;;;;;17.17;9.50;;;10.90;99.90;;;;;;5053001;28;20017;-66
2022/06/13 09:30:15;;;;;;;21.77;11.07;;;10.80;99.90;;;;;;5067574;28;20025;-68
2022/06/13 09:32:45;;;;;;;20.05;11.20;;;10.80;99.90;;;;;;5052804;28;20493;-70
2022/06/13 09:35:23;;;;;;;21.75;12.45;;;10.80;99.90;;;;;;5052690;28;20025;-72
2022/06/13 09:37:58;;;;;;;15.98;10.15;;;10.80;99.90;;;;;;5052636;28;20465;-68
2022/06/13 09:40:37;;;;;;;18.95;10.40;;;10.70;99.90;;;;;;5052281;28;20036;-67
2022/06/13 09:43:24;;;;;;;17.23;11.15;;;10.70;99.90;;;;;;5050727;28;20064;-67
2022/06/13 09:46:01;;;;;;;17.77;10.95;;;10.70;99.90;;;;;;5074968;28;20029;-70
2022/06/13 09:48:37;;;;;;;19.25;11.70;;;10.60;99.90;;;;;;5052265;28;20481;-69
2022/06/13 09:51:25;;;;;;;21.02;11.88;;;10.60;99.90;;;;;;5051732;28;20048;-68
2022/06/13 09:54:11;;;;;;;29.15;19.67;;;10.60;99.90;;;;;;5037285;28;20042;-69
2022/06/13 09:56:42;;;;;;;18.52;12.18;;;10.50;99.90;;;;;;5048078;28;20064;-73
2022/06/13 09:59:23;;;;;;;19.98;11.05;;;10.40;99.90;;;;;;5051277;28;20029;-71
2022/06/13 10:02:03;;;;;;;16.75;10.35;;;10.50;99.90;;;;;;5051488;28;20079;-70
2022/06/13 10:05:03;;;;;;;19.70;11.35;;;10.40;99.90;;;;;;5051296;28;20017;-68
2022/06/13 10:08:09;;;;;;;18.17;11.48;;;10.30;99.90;;;;;;5052159;28;20113;-69
2022/06/13 10:11:03;;;;;;;15.20;10.05;;;10.30;99.90;;;;;;5052353;28;20195;-69
2022/06/13 10:14:06;;;;;;;13.85;9.73;;;10.30;99.90;;;;;;5051642;28;20077;-67
2022/06/13 10:16:48;;;;;;;16.30;9.45;;;10.30;99.90;;;;;;5024136;28;20036;-68
2022/06/13 10:19:34;;;;;;;16.60;9.00;;;10.20;99.90;;;;;;5051647;28;20688;-67
2022/06/13 10:22:19;;;;;;;15.90;9.35;;;10.20;99.90;;;;;;5051679;28;20035;-67
2022/06/13 10:25:05;;;;;;;19.95;10.05;;;10.20;99.90;;;;;;5051820;28;20100;-68
2022/06/13 10:27:44;;;;;;;20.27;12.23;;;10.10;99.90;;;;;;5051669;28;20028;-69
2022/06/13 10:30:36;;;;;;;19.50;11.45;;;10.10;99.90;;;;;;5012138;28;20421;-68
2022/06/13 10:33:26;;;;;;;23.33;11.77;;;10.10;99.90;;;;;;5028471;28;20394;-70
2022/06/13 10:36:31;;;;;;;17.30;10.50;;;10.10;99.90;;;;;;5030608;28;20096;-68
2022/06/13 10:39:10;;;;;;;15.52;9.20;;;10.00;99.90;;;;;;5033162;28;20028;-68
2022/06/13 10:41:43;;;;;;;17.98;9.70;;;10.00;99.90;;;;;;5032022;28;20041;-67
2022/06/13 10:44:12;;;;;;;;;;;10.00;99.90;;;;;;5043118;28;20029;-67
2022/06/13 10:46:44;;;;;;;17.80;9.38;;;10.00;99.90;;;;;;5047022;28;19909;-68
2022/06/13 10:49:40;;;;;;;14.93;8.65;;;9.90;99.90;;;;;;5029778;28;20033;-69
2022/06/13 10:52:14;;;;;;;16.13;9.60;;;9.90;99.90;;;;;;5029532;28;20025;-71
2022/06/13 10:54:52;;;;;;;19.65;12.20;;;9.80;99.90;;;;;;5029715;28;20060;-68
2022/06/13 10:57:27;;;;;;;21.15;11.68;;;9.80;99.90;;;;;;5031930;28;20067;-67
2022/06/13 11:00:30;;;;;;;21.45;13.43;;;9.80;99.90;;;;;;5029606;28;20029;-69
2022/06/13 11:03:28;;;;;;;;;;;9.70;99.90;;;;;;5018937;28;20030;-68
2022/06/13 11:06:07;;;;;;;22.08;15.07;;;9.80;99.90;;;;;;5007293;28;19920;-67
2022/06/13 11:08:35;;;;;;;23.77;15.75;;;9.70;99.90;;;;;;5031664;28;20394;-67
2022/06/13 11:11:05;;;;;;;23.10;16.92;;;9.70;99.90;;;;;;5029608;28;20033;-68
2022/06/13 11:13:36;;;;;;;26.27;18.60;;;9.70;99.90;;;;;;5027527;28;20025;-70
2022/06/13 11:22:40;;;;;;;;;;;9.70;99.90;;;;;;5029610;28;20036;-68
2022/06/13 11:25:19;;;;;;;;;;;9.60;99.90;;;;;;5028473;28;19944;-69
2022/06/13 11:28:00;;;;;;;21.55;15.68;;;9.60;99.90;;;;;;5029068;28;19912;-68
2022/06/13 11:30:27;;;;;;;26.00;16.83;;;9.60;99.90;;;;;;5029543;28;20052;-67
2022/06/13 11:33:24;;;;;;;27.10;16.52;;;9.50;99.90;;;;;;5032540;28;20036;-67
2022/06/13 11:36:22;;;;;;;23.55;15.88;;;9.50;99.90;;;;;;5033604;28;20028;-67
2022/06/13 11:39:05;;;;;;;22.77;16.95;;;9.50;99.90;;;;;;5029081;28;20014;-68
2022/06/13 11:41:35;;;;;;;;;;;9.40;99.90;;;;;;5028267;28;20100;-68
2022/06/13 11:44:23;;;;;;;22.25;14.85;;;9.40;99.90;;;;;;5029370;28;19991;-69
2022/06/13 11:47:04;;;;;;;28.00;15.02;;;9.40;99.90;;;;;;5035776;28;20049;-69
2022/06/13 11:49:39;;;;;;;20.80;15.35;;;9.30;99.90;;;;;;5031798;28;20090;-68
2022/06/13 11:52:12;;;;;;;23.73;16.13;;;9.30;99.90;;;;;;5031229;28;20104;-68
2022/06/13 11:54:54;;;;;;;24.27;15.45;;;9.30;99.90;;;;;;5030149;28;20033;-68
2022/06/13 11:57:36;;;;;;;23.67;16.63;;;9.30;99.90;;;;;;5034574;28;20409;-69
2022/06/13 12:00:18;;;;;;;24.83;15.70;;;9.30;99.90;;;;;;5047556;28;20073;-67
2022/06/13 12:02:48;;;;;;;28.07;18.30;;;9.30;99.90;;;;;;5030465;28;20024;-68
2022/06/13 12:05:22;;;;;;;32.08;19.15;;;9.20;99.90;;;;;;5034384;28;20304;-70
2022/06/13 12:08:02;;;;;;;27.40;18.08;;;9.20;99.90;;;;;;5032317;28;20028;-67
2022/06/13 12:10:41;;;;;;;29.98;19.30;;;9.20;99.90;;;;;;5033149;28;20056;-67
2022/06/13 12:13:16;;;;;;;39.10;22.50;;;9.20;99.90;;;;;;5063984;28;20620;-68
2022/06/13 12:16:05;;;;;;;29.48;19.95;;;9.10;99.90;;;;;;5031890;28;20104;-68
2022/06/13 12:18:45;;;;;;;34.67;19.95;;;9.10;99.90;;;;;;5032433;28;20108;-69
2022/06/13 12:21:38;;;;;;;38.85;22.20;;;9.10;99.90;;;;;;5031336;28;20033;-67
2022/06/13 12:24:27;;;;;;;34.75;22.23;;;9.10;99.90;;;;;;5032455;28;20018;-67
2022/06/13 12:26:57;;;;;;;34.88;20.55;;;9.00;99.90;;;;;;5029261;28;20100;-69
2022/06/13 12:29:48;;;;;;;32.90;19.48;;;9.10;99.90;;;;;;5030757;28;20018;-68
2022/06/13 12:32:26;;;;;;;33.88;20.67;;;9.00;99.90;;;;;;5032305;28;20478;-68
2022/06/13 12:35:30;;;;;;;33.90;20.40;;;9.00;99.90;;;;;;5034611;28;20029;-70
2022/06/13 12:38:03;;;;;;;27.58;18.75;;;9.00;99.90;;;;;;5032404;28;20108;-68
2022/06/13 12:40:52;;;;;;;33.28;19.63;;;8.90;99.90;;;;;;5029685;28;20030;-68
2022/06/13 12:43:30;;;;;;;31.05;18.10;;;9.00;99.90;;;;;;5031935;28;20049;-69
2022/06/13 12:46:18;;;;;;;27.33;18.55;;;8.90;99.90;;;;;;5032094;28;20041;-69
2022/06/13 12:48:58;;;;;;;26.92;16.83;;;8.90;99.90;;;;;;5031301;28;20024;-69
2022/06/13 12:51:52;;;;;;;22.10;14.93;;;8.80;99.90;;;;;;5037451;28;20032;-68
2022/06/13 12:54:50;;;;;;;25.35;15.77;;;8.80;99.90;;;;;;5053534;28;20049;-67
2022/06/13 12:57:38;;;;;;;27.85;20.13;;;8.70;99.90;;;;;;5014063;28;20060;-67
2022/06/13 13:00:09;;;;;;;33.05;22.10;;;8.70;99.90;;;;;;5013835;28;20108;-68
2022/06/13 13:03:08;;;;;;;28.92;22.30;;;8.60;99.90;;;;;;5036873;28;20017;-68
2022/06/13 13:05:53;;;;;;;37.55;23.45;;;8.60;99.90;;;;;;5044480;28;20060;-70
2022/06/13 13:08:36;;;;;;;33.25;23.08;;;8.60;99.90;;;;;;5053415;28;20079;-68
2022/06/13 13:11:48;;;;;;;33.88;23.55;;;8.70;99.90;;;;;;5053456;28;20024;-70
2022/06/13 13:14:46;;;;;;;36.35;25.48;;;8.70;99.90;;;;;;5052792;28;20477;-69
2022/06/13 13:17:31;;;;;;;38.15;24.65;;;8.60;99.90;;;;;;5053392;28;20032;-67
2022/06/13 13:20:35;;;;;;;38.55;24.45;;;8.60;99.90;;;;;;5052147;28;20037;-67
2022/06/13 13:23:27;;;;;;;37.60;24.85;;;8.70;99.90;;;;;;5053504;28;20059;-68
2022/06/13 13:26:12;;;;;;;34.83;23.37;;;8.70;99.90;;;;;;5049795;28;20066;-67
2022/06/13 13:28:39;;;;;;;27.98;20.88;;;8.60;99.90;;;;;;5053044;28;20473;-68
2022/06/13 13:31:38;;;;;;;28.70;19.70;;;8.60;99.90;;;;;;5051563;28;20455;-73
2022/06/13 13:34:40;;;;;;;31.92;21.33;;;8.60;99.90;;;;;;5052766;28;20091;-67
2022/06/13 13:37:20;;;;;;;33.00;21.10;;;8.60;99.90;;;;;;5052738;28;20025;-73
2022/06/13 13:40:30;;;;;;;33.72;21.05;;;8.50;99.90;;;;;;5053001;28;20104;-68
2022/06/13 13:43:27;;;;;;;27.85;19.48;;;8.50;99.90;;;;;;5012789;28;20432;-67
2022/06/13 13:46:17;;;;;;;28.23;20.85;;;8.40;99.90;;;;;;5011937;28;20030;-67
2022/06/13 13:48:54;;;;;;;30.38;19.58;;;8.50;99.90;;;;;;5013176;28;20036;-68
2022/06/13 13:51:34;;;;;;;30.50;21.13;;;8.40;99.90;;;;;;5021056;28;20024;-70
2022/06/13 13:54:21;;;;;;;30.27;21.13;;;8.40;99.90;;;;;;5052365;28;20041;-67
2022/06/13 13:57:16;;;;;;;30.25;20.50;;;8.40;99.90;;;;;;5052684;28;20050;-67